createdAt,value
2019-05-23T00:17:21.586Z,3.60
2019-05-23T00:19:51.251Z,4.57
2019-05-23T00:22:20.458Z,3.90
2019-05-23T00:24:49.608Z,4.03
2019-05-23T00:27:20.239Z,4.00
2019-05-23T00:29:51.390Z,4.03
2019-05-23T00:32:42.774Z,4.50
2019-05-23T00:35:11.922Z,4.07
2019-05-23T00:37:43.600Z,4.03
2019-05-23T00:40:15.818Z,3.87
2019-05-23T00:42:45.892Z,3.30
2019-05-23T00:45:15.428Z,3.30
2019-05-23T00:47:44.739Z,3.80
2019-05-23T00:50:16.509Z,3.93
2019-05-23T00:52:45.940Z,3.57
2019-05-23T00:55:16.486Z,3.80
2019-05-23T00:57:46.416Z,4.17
2019-05-23T01:00:19.335Z,3.67
2019-05-23T01:02:49.113Z,3.77
2019-05-23T01:05:18.729Z,4.20
2019-05-23T01:07:48.306Z,4.20
2019-05-23T01:10:18.862Z,4.13
2019-05-23T01:12:48.477Z,4.17
2019-05-23T01:15:21.006Z,4.50
2019-05-23T01:17:50.695Z,4.20
2019-05-23T01:20:23.631Z,4.10
2019-05-23T01:22:54.417Z,4.03
2019-05-23T01:25:24.153Z,4.10
2019-05-23T01:27:54.249Z,3.80
2019-05-23T01:30:27.982Z,3.93
2019-05-23T01:32:58.416Z,4.27
2019-05-23T01:35:27.800Z,4.20
2019-05-23T01:37:58.201Z,4.20
2019-05-23T01:40:27.656Z,4.70
2019-05-23T01:42:58.419Z,4.70
2019-05-23T01:45:28.029Z,4.90
2019-05-23T01:47:57.766Z,4.80
2019-05-23T01:50:27.042Z,4.60
2019-05-23T01:52:57.713Z,4.80
2019-05-23T01:55:27.354Z,5.70
2019-05-23T01:57:56.323Z,5.60
2019-05-23T02:00:27.932Z,5.93
2019-05-23T02:02:58.137Z,5.80
2019-05-23T02:05:27.642Z,5.67
2019-05-23T02:07:57.366Z,5.43
2019-05-23T02:10:26.987Z,5.37
2019-05-23T02:12:56.590Z,5.67
2019-05-23T02:15:25.948Z,6.00
2019-05-23T02:17:55.029Z,5.40
2019-05-23T02:20:24.702Z,5.80
2019-05-23T02:22:54.401Z,6.00
2019-05-23T02:25:24.307Z,5.93
2019-05-23T02:27:54.186Z,5.90
2019-05-23T02:30:34.604Z,5.63
2019-05-23T02:32:55.662Z,6.00
2019-05-23T02:35:25.219Z,5.43
2019-05-23T02:38:22.402Z,5.50
2019-05-23T02:41:13.026Z,5.20
2019-05-23T02:43:45.743Z,5.67
2019-05-23T02:46:24.272Z,5.60
2019-05-23T02:48:57.180Z,5.53
2019-05-23T02:51:29.289Z,5.17
2019-05-23T02:54:01.843Z,5.27
2019-05-23T02:56:34.635Z,5.80
2019-05-23T02:59:23.826Z,5.90
2019-05-23T03:02:50.796Z,5.93
2019-05-23T03:05:22.600Z,5.50
2019-05-23T03:07:53.942Z,5.53
2019-05-23T03:10:26.993Z,5.53
2019-05-23T03:12:58.581Z,4.97
2019-05-23T03:15:28.778Z,5.60
2019-05-23T03:18:00.673Z,5.83
2019-05-23T03:20:30.485Z,5.70
2019-05-23T03:23:04.092Z,5.90
2019-05-23T03:26:15.487Z,5.87
2019-05-23T03:28:44.391Z,5.40
2019-05-23T03:31:29.389Z,5.27
2019-05-23T03:33:52.112Z,5.80
2019-05-23T03:36:21.765Z,6.63
2019-05-23T03:38:51.369Z,6.40
2019-05-23T03:41:21.957Z,5.70
2019-05-23T03:43:50.957Z,5.63
2019-05-23T03:46:22.240Z,6.10
2019-05-23T03:48:53.092Z,5.67
2019-05-23T03:51:23.739Z,5.60
2019-05-23T03:53:54.528Z,5.77
2019-05-23T03:56:24.910Z,6.40
2019-05-23T03:58:56.202Z,6.00
2019-05-23T04:01:45.943Z,5.47
2019-05-23T04:03:58.597Z,5.93
2019-05-23T04:06:29.735Z,6.50
2019-05-23T04:08:58.670Z,7.07
2019-05-23T04:11:28.295Z,6.70
2019-05-23T04:13:57.580Z,6.87
2019-05-23T04:16:30.466Z,6.90
2019-05-23T04:18:56.991Z,6.33
2019-05-23T04:21:26.052Z,6.87
2019-05-23T04:23:55.045Z,8.13
2019-05-23T04:26:24.057Z,7.83
2019-05-23T04:28:53.667Z,8.80
2019-05-23T04:31:23.277Z,10.33
2019-05-23T04:33:52.459Z,11.40
2019-05-23T04:36:22.682Z,12.60
2019-05-23T04:38:51.732Z,14.00
2019-05-23T04:41:20.538Z,13.63
2019-05-23T04:43:49.494Z,14.67
2019-05-23T04:46:18.871Z,13.30
2019-05-23T04:48:47.796Z,13.47
2019-05-23T04:51:16.966Z,13.03
2019-05-23T04:53:45.868Z,14.00
2019-05-23T04:56:15.041Z,13.90
2019-05-23T04:58:44.490Z,14.07
2019-05-23T05:01:14.660Z,13.30
2019-05-23T05:03:46.373Z,13.73
2019-05-23T05:06:15.537Z,12.87
2019-05-23T05:08:44.635Z,13.27
2019-05-23T05:11:14.119Z,13.37
2019-05-23T05:13:44.112Z,13.87
2019-05-23T05:16:13.463Z,12.83
2019-05-23T05:18:43.230Z,12.50
2019-05-23T05:21:12.338Z,12.97
2019-05-23T05:24:18.644Z,12.50
2019-05-23T05:26:47.590Z,12.77
2019-05-23T05:29:16.539Z,12.83
2019-05-23T05:31:45.763Z,13.50
2019-05-23T05:34:15.209Z,12.67
2019-05-23T05:36:44.223Z,12.10
2019-05-23T05:39:13.817Z,11.33
2019-05-23T05:41:43.305Z,11.87
2019-05-23T05:44:13.190Z,10.83
2019-05-23T05:46:42.869Z,10.03
2019-05-23T05:49:12.150Z,9.73
2019-05-23T05:51:41.183Z,9.60
2019-05-23T05:54:10.349Z,9.20
2019-05-23T05:56:39.179Z,9.20
2019-05-23T05:59:08.342Z,8.73
2019-05-23T06:01:37.343Z,8.57
2019-05-23T06:04:06.632Z,8.13
2019-05-23T06:06:43.950Z,7.90
2019-05-23T06:09:20.435Z,7.47
2019-05-23T06:11:49.620Z,7.55
2019-05-23T06:14:28.178Z,6.70
2019-05-23T06:16:57.154Z,6.33
2019-05-23T06:19:26.184Z,6.20
2019-05-23T06:21:55.511Z,6.10
2019-05-23T06:24:42.711Z,5.90
2019-05-23T06:26:55.535Z,5.77
2019-05-23T06:29:25.247Z,5.53
2019-05-23T06:31:54.396Z,4.63
2019-05-23T06:34:23.520Z,4.23
2019-05-23T06:36:53.051Z,4.13
2019-05-23T06:39:22.947Z,4.10
2019-05-23T06:41:51.955Z,3.80
2019-05-23T06:44:21.494Z,4.00
2019-05-23T06:46:50.435Z,3.23
2019-05-23T06:49:19.478Z,3.40
2019-05-23T06:51:48.574Z,2.90
2019-05-23T06:54:17.664Z,3.00
2019-05-23T06:56:46.771Z,2.87
2019-05-23T06:59:15.583Z,2.60
2019-05-23T07:01:44.391Z,2.30
2019-05-23T07:04:13.368Z,2.13
2019-05-23T07:06:42.479Z,2.10
2019-05-23T07:09:15.596Z,2.20
2019-05-23T07:11:44.733Z,1.80
2019-05-23T07:14:13.702Z,1.60
2019-05-23T07:16:43.241Z,1.83
2019-05-23T07:19:12.886Z,1.60
2019-05-23T07:21:42.201Z,1.63
2019-05-23T07:24:11.289Z,1.50
2019-05-23T07:26:40.817Z,1.50
2019-05-23T07:29:11.135Z,1.57
2019-05-23T07:31:40.146Z,1.50
2019-05-23T07:34:09.004Z,1.23
2019-05-23T07:36:38.278Z,1.50
2019-05-23T07:39:11.485Z,1.20
2019-05-23T07:41:39.635Z,1.10
2019-05-23T07:44:08.748Z,1.20
2019-05-23T07:46:37.665Z,1.10
2019-05-23T07:49:06.745Z,1.13
2019-05-23T07:51:35.902Z,1.27
2019-05-23T07:54:12.374Z,1.20
2019-05-23T07:56:41.402Z,0.90
2019-05-23T07:59:10.292Z,0.97
2019-05-23T08:01:41.763Z,0.80
2019-05-23T08:04:21.516Z,1.00
2019-05-23T08:06:42.063Z,1.10
2019-05-23T08:09:11.523Z,0.90
2019-05-23T08:11:40.365Z,1.40
2019-05-23T08:14:11.986Z,1.07
2019-05-23T08:16:40.398Z,1.20
2019-05-23T08:19:09.347Z,1.20
2019-05-23T08:21:38.539Z,1.20
2019-05-23T08:24:08.120Z,1.00
2019-05-23T08:26:37.511Z,1.00
2019-05-23T08:29:25.343Z,1.00
2019-05-23T08:31:37.766Z,1.23
2019-05-23T08:34:07.408Z,1.20
2019-05-23T08:36:36.497Z,1.40
2019-05-23T08:39:07.614Z,1.50
2019-05-23T08:41:36.927Z,1.70
2019-05-23T08:44:06.167Z,1.90
2019-05-23T08:46:35.287Z,1.50
2019-05-23T08:49:04.963Z,1.67
2019-05-23T08:51:34.559Z,1.83
2019-05-23T08:54:03.551Z,1.63
2019-05-23T08:56:32.893Z,1.73
2019-05-23T08:59:01.943Z,1.80
2019-05-23T09:01:31.334Z,1.70
2019-05-23T09:04:00.899Z,1.80
2019-05-23T09:06:30.796Z,2.08
2019-05-23T09:08:59.919Z,1.90
2019-05-23T09:11:28.787Z,2.00
2019-05-23T09:13:57.866Z,1.92
2019-05-23T09:16:26.803Z,1.90
2019-05-23T09:18:55.798Z,1.90
2019-05-23T09:21:24.984Z,1.77
2019-05-23T09:23:53.777Z,1.80
2019-05-23T09:26:23.409Z,1.75
2019-05-23T09:28:52.513Z,1.77
2019-05-23T09:31:22.684Z,1.82
2019-05-23T09:33:51.655Z,1.30
2019-05-23T09:36:20.837Z,1.77
2019-05-23T09:38:49.792Z,1.65
2019-05-23T09:41:18.790Z,1.60
2019-05-23T09:43:48.107Z,1.40
2019-05-23T09:46:17.123Z,1.90
2019-05-23T09:48:46.082Z,1.62
2019-05-23T09:51:15.286Z,2.00
2019-05-23T09:53:47.365Z,1.98
2019-05-23T09:56:15.154Z,1.70
2019-05-23T09:58:44.110Z,1.70
2019-05-23T10:01:14.543Z,1.70
2019-05-23T10:03:43.460Z,1.90
2019-05-23T10:06:12.425Z,1.67
2019-05-23T10:08:41.425Z,1.77
2019-05-23T10:11:11.580Z,1.70
2019-05-23T10:13:40.400Z,1.70
2019-05-23T10:16:10.608Z,1.75
2019-05-23T10:18:41.324Z,1.60
2019-05-23T10:21:10.462Z,1.65
2019-05-23T10:23:39.277Z,1.30
2019-05-23T10:26:08.396Z,1.70
2019-05-23T10:28:37.261Z,2.30
2019-05-23T10:31:08.034Z,1.82
2019-05-23T10:33:37.304Z,1.75
2019-05-23T10:36:06.600Z,1.95
2019-05-23T10:38:35.476Z,2.00
2019-05-23T10:41:07.360Z,2.02
2019-05-23T10:43:36.309Z,2.10
2019-05-23T10:46:05.486Z,2.20
2019-05-23T10:48:34.559Z,2.00
2019-05-23T10:51:03.839Z,2.20
2019-05-23T10:53:32.774Z,2.20
2019-05-23T10:56:01.629Z,2.12
2019-05-23T10:58:30.975Z,2.00
2019-05-23T11:00:59.922Z,2.33
2019-05-23T11:03:29.705Z,1.80
2019-05-23T11:06:13.369Z,2.10
2019-05-23T11:08:30.766Z,2.30
2019-05-23T11:11:00.156Z,2.00
2019-05-23T11:13:29.786Z,2.27
2019-05-23T11:15:59.031Z,2.10
2019-05-23T11:18:27.879Z,2.27
2019-05-23T11:20:56.781Z,2.37
2019-05-23T11:23:30.616Z,2.55
2019-05-23T11:26:01.495Z,2.35
2019-05-23T11:28:31.659Z,2.20
2019-05-23T11:31:01.681Z,2.40
2019-05-23T11:33:30.455Z,2.45
2019-05-23T11:35:59.506Z,2.50
2019-05-23T11:38:28.864Z,2.65
2019-05-23T11:40:57.861Z,2.30
2019-05-23T11:43:27.252Z,2.33
2019-05-23T11:46:04.344Z,2.37
2019-05-23T11:48:34.739Z,2.67
2019-05-23T11:51:04.119Z,2.65
2019-05-23T11:53:36.025Z,2.70
2019-05-23T11:56:05.736Z,2.33
2019-05-23T11:58:34.849Z,2.77
2019-05-23T12:01:21.260Z,2.80
2019-05-23T12:03:55.094Z,2.60
2019-05-23T12:06:26.649Z,2.72
2019-05-23T12:08:55.658Z,2.52
2019-05-23T12:11:30.658Z,2.45
2019-05-23T12:13:59.778Z,2.75
2019-05-23T12:16:28.769Z,2.30
2019-05-23T12:18:57.645Z,2.12
2019-05-23T12:21:26.782Z,2.30
2019-05-23T12:23:55.654Z,2.30
2019-05-23T12:26:24.905Z,2.27
2019-05-23T12:28:53.835Z,2.30
2019-05-23T12:31:23.470Z,2.70
2019-05-23T12:33:52.430Z,2.22
2019-05-23T12:36:21.765Z,2.50
2019-05-23T12:38:51.134Z,2.45
2019-05-23T12:41:20.129Z,3.00
2019-05-23T12:43:52.886Z,2.87
2019-05-23T12:46:22.002Z,2.60
2019-05-23T12:49:09.990Z,3.00
2019-05-23T12:51:39.695Z,3.12
2019-05-23T12:54:09.017Z,3.08
2019-05-23T12:56:38.222Z,3.25
2019-05-23T12:59:08.485Z,3.10
2019-05-23T13:01:39.449Z,2.85
2019-05-23T13:04:10.995Z,3.10
2019-05-23T13:06:40.511Z,3.20
2019-05-23T13:09:10.380Z,3.00
2019-05-23T13:11:39.375Z,3.20
2019-05-23T13:14:09.202Z,3.15
2019-05-23T13:16:38.270Z,2.98
2019-05-23T13:19:07.146Z,3.17
2019-05-23T13:21:36.118Z,2.52
2019-05-23T13:24:05.356Z,2.80
2019-05-23T13:26:34.281Z,3.40
2019-05-23T13:29:03.155Z,2.95
2019-05-23T13:31:32.101Z,2.80
2019-05-23T13:34:01.190Z,2.80
2019-05-23T13:36:30.010Z,2.85
2019-05-23T13:38:59.171Z,3.00
2019-05-23T13:41:28.316Z,3.15
2019-05-23T13:43:57.255Z,3.20
2019-05-23T13:46:26.275Z,2.90
2019-05-23T13:48:55.067Z,3.30
2019-05-23T13:51:24.185Z,3.20
2019-05-23T13:53:52.969Z,3.10
2019-05-23T13:56:21.998Z,2.70
2019-05-23T13:58:50.858Z,2.50
2019-05-23T14:01:19.671Z,2.50
2019-05-23T14:03:49.810Z,2.30
2019-05-23T14:06:19.598Z,2.35
2019-05-23T14:08:48.516Z,3.02
2019-05-23T14:11:18.108Z,2.72
2019-05-23T14:13:47.532Z,2.95
2019-05-23T14:16:16.884Z,2.60
2019-05-23T14:18:48.897Z,2.62
2019-05-23T14:21:17.745Z,2.95
2019-05-23T14:23:46.852Z,2.83
2019-05-23T14:26:16.278Z,2.30
2019-05-23T14:28:45.235Z,2.60
2019-05-23T14:31:15.942Z,2.87
2019-05-23T14:33:54.317Z,2.90
2019-05-23T14:36:32.511Z,3.10
2019-05-23T14:39:04.950Z,2.52
2019-05-23T14:41:45.031Z,3.05
2019-05-23T14:44:12.391Z,2.80
2019-05-23T14:46:50.370Z,2.80
2019-05-23T14:49:24.787Z,2.67
2019-05-23T14:52:09.756Z,2.72
2019-05-23T14:54:41.161Z,2.70
2019-05-23T14:57:11.109Z,2.67
2019-05-23T14:59:40.208Z,2.77
2019-05-23T15:02:14.456Z,2.70
2019-05-23T15:04:43.445Z,2.12
2019-05-23T15:07:12.229Z,2.60
2019-05-23T15:09:41.018Z,2.35
2019-05-23T15:12:10.636Z,2.40
2019-05-23T15:14:39.453Z,2.50
2019-05-23T15:17:08.486Z,2.30
2019-05-23T15:19:42.067Z,2.60
2019-05-23T15:22:08.040Z,2.72
2019-05-23T15:24:37.357Z,2.30
2019-05-23T15:27:06.328Z,2.70
2019-05-23T15:29:35.212Z,2.12
2019-05-23T15:32:04.096Z,2.20
2019-05-23T15:34:35.266Z,2.50
2019-05-23T15:37:03.465Z,2.10
2019-05-23T15:39:32.362Z,2.08
2019-05-23T15:42:01.208Z,1.75
2019-05-23T15:44:31.201Z,2.30
2019-05-23T15:47:17.855Z,2.40
2019-05-23T15:49:48.872Z,2.10
2019-05-23T15:52:43.075Z,2.22
2019-05-23T15:55:34.654Z,2.17
2019-05-23T15:58:11.071Z,1.92
2019-05-23T16:01:08.221Z,1.90
2019-05-23T16:03:49.621Z,2.33
2019-05-23T16:06:20.459Z,2.35
2019-05-23T16:08:50.142Z,2.33
2019-05-23T16:11:19.696Z,2.15
2019-05-23T16:13:48.633Z,1.98
2019-05-23T16:16:17.738Z,2.17
2019-05-23T16:18:47.511Z,2.27
2019-05-23T16:21:18.811Z,1.80
2019-05-23T16:23:47.880Z,2.00
2019-05-23T16:26:17.584Z,2.00
2019-05-23T16:28:46.449Z,1.50
2019-05-23T16:31:15.343Z,2.05
2019-05-23T16:33:45.460Z,2.33
2019-05-23T16:36:14.669Z,1.77
2019-05-23T16:38:44.267Z,1.95
2019-05-23T16:41:13.507Z,1.72
2019-05-23T16:43:42.416Z,2.00
2019-05-23T16:46:11.551Z,2.00
2019-05-23T16:48:40.583Z,1.65
2019-05-23T16:51:09.719Z,1.45
2019-05-23T16:53:39.258Z,1.98
2019-05-23T16:56:16.193Z,1.80
2019-05-23T16:59:04.236Z,1.60
2019-05-23T17:01:57.063Z,1.60
2019-05-23T17:04:47.809Z,1.67
2019-05-23T17:07:30.400Z,1.70
2019-05-23T17:10:09.550Z,1.47
2019-05-23T17:12:51.908Z,1.20
2019-05-23T17:15:34.755Z,1.22
2019-05-23T17:18:17.800Z,1.27
2019-05-23T17:21:08.565Z,1.40
2019-05-23T17:23:54.724Z,1.20
2019-05-23T17:26:51.864Z,1.62
2019-05-23T17:29:42.319Z,1.30
2019-05-23T17:32:13.001Z,1.40
2019-05-23T17:34:42.304Z,1.40
2019-05-23T17:37:12.269Z,1.30
2019-05-23T17:39:42.582Z,1.20
2019-05-23T17:42:11.793Z,1.10
2019-05-23T17:44:40.700Z,1.42
2019-05-23T17:47:09.920Z,1.05
2019-05-23T17:49:38.669Z,1.10
2019-05-23T17:52:08.598Z,1.50
2019-05-23T17:54:37.475Z,1.22
2019-05-23T17:57:06.580Z,1.00
2019-05-23T17:59:35.371Z,1.10
2019-05-23T18:02:05.799Z,1.20
2019-05-23T18:04:34.584Z,1.45
2019-05-23T18:07:03.970Z,1.55
2019-05-23T18:09:33.046Z,1.60
2019-05-23T18:12:03.694Z,1.40
2019-05-23T18:14:32.775Z,1.20
2019-05-23T18:17:02.095Z,1.25
2019-05-23T18:19:31.076Z,0.98
2019-05-23T18:22:00.580Z,1.07
2019-05-23T18:24:29.655Z,1.22
2019-05-23T18:26:58.722Z,1.10
2019-05-23T18:29:27.914Z,1.10
2019-05-23T18:31:57.261Z,1.10
2019-05-23T18:34:26.745Z,1.07
2019-05-23T18:36:56.100Z,1.15
2019-05-23T18:39:26.296Z,1.00
2019-05-23T18:41:55.637Z,1.12
2019-05-23T18:44:25.086Z,0.87
2019-05-23T18:46:55.717Z,1.20
2019-05-23T18:49:25.726Z,1.20
2019-05-23T18:51:54.680Z,1.20
2019-05-23T18:54:23.564Z,1.00
2019-05-23T18:56:52.686Z,1.20
2019-05-23T18:59:23.430Z,1.20
2019-05-23T19:01:52.262Z,1.10
2019-05-23T19:04:21.590Z,1.20
2019-05-23T19:06:51.267Z,1.20
2019-05-23T19:09:21.738Z,1.25
2019-05-23T19:11:50.712Z,1.10
2019-05-23T19:14:19.908Z,1.43
2019-05-23T19:16:48.953Z,1.20
2019-05-23T19:19:18.363Z,1.20
2019-05-23T19:21:47.898Z,1.40
2019-05-23T19:24:17.414Z,1.17
2019-05-23T19:26:48.371Z,1.30
2019-05-23T19:36:27.626Z,1.20
2019-05-23T19:38:56.480Z,1.30
2019-05-23T19:41:45.781Z,1.43
2019-05-23T19:44:14.571Z,1.20
2019-05-23T19:46:48.546Z,1.40
2019-05-23T19:49:17.651Z,1.30
2019-05-23T19:51:46.739Z,1.27
2019-05-23T19:54:15.968Z,1.43
2019-05-23T19:56:44.884Z,1.30
2019-05-23T19:59:20.765Z,1.63
2019-05-23T20:02:08.023Z,1.50
2019-05-23T20:04:39.826Z,1.50
2019-05-23T20:07:15.630Z,1.57
2019-05-23T20:09:44.633Z,1.50
2019-05-23T20:12:14.943Z,1.57
2019-05-23T20:14:43.939Z,1.33
2019-05-23T20:17:12.748Z,1.70
2019-05-23T20:19:41.811Z,1.47
2019-05-23T20:22:11.496Z,1.60
2019-05-23T20:24:40.563Z,1.80
2019-05-23T20:27:09.980Z,1.70
2019-05-23T20:29:39.438Z,2.00
2019-05-23T20:32:09.002Z,1.70
2019-05-23T20:34:37.811Z,1.73
2019-05-23T20:37:10.159Z,2.00
2019-05-23T20:39:38.817Z,1.70
2019-05-23T20:42:11.611Z,1.70
2019-05-23T20:44:38.904Z,2.07
2019-05-23T20:47:09.051Z,1.90
2019-05-23T20:49:39.541Z,1.80
2019-05-23T20:52:09.240Z,1.80
2019-05-23T20:54:38.111Z,1.90
2019-05-23T20:57:08.743Z,1.90
2019-05-23T20:59:37.668Z,2.07
2019-05-23T21:02:07.148Z,2.07
2019-05-23T21:04:36.064Z,2.13
2019-05-23T21:07:05.227Z,2.20
2019-05-23T21:09:34.184Z,2.20
2019-05-23T21:12:04.190Z,2.07
2019-05-23T21:14:33.280Z,2.07
2019-05-23T21:17:02.355Z,2.33
2019-05-23T21:19:31.531Z,2.17
2019-05-23T21:22:00.442Z,2.40
2019-05-23T21:24:31.542Z,2.20
2019-05-23T21:27:00.653Z,2.10
2019-05-23T21:29:30.010Z,2.20
2019-05-23T21:31:59.008Z,2.40
2019-05-23T21:34:28.245Z,2.40
2019-05-23T21:37:07.264Z,2.33
2019-05-23T21:39:35.832Z,2.50
2019-05-23T21:42:05.212Z,2.60
2019-05-23T21:44:34.195Z,2.47
2019-05-23T21:47:03.287Z,2.63
2019-05-23T21:49:32.353Z,2.30
2019-05-23T21:52:01.195Z,2.23
2019-05-23T21:54:30.203Z,2.30
2019-05-23T21:56:59.085Z,2.40
2019-05-23T21:59:28.063Z,2.50
2019-05-23T22:02:22.253Z,2.70
2019-05-23T22:05:04.889Z,2.40
2019-05-23T22:07:34.334Z,2.60
2019-05-23T22:10:06.745Z,2.50
2019-05-23T22:12:36.073Z,2.60
2019-05-23T22:15:06.246Z,2.97
2019-05-23T22:17:35.310Z,2.90
2019-05-23T22:20:09.709Z,3.17
2019-05-23T22:26:11.582Z,3.20
2019-05-23T22:28:47.289Z,3.00
2019-05-23T22:31:23.167Z,3.00
2019-05-23T22:34:46.030Z,2.93
2019-05-23T22:37:25.273Z,2.97
